Idre Storbo, Sweden

6:05 PM CET on March 05, 2015 (GMT +0100)
Roros | Change Station
CLOSE
Current Station
Airport
Location: Roros Lufthavn,
Elevation: 2054 ft
Nearby Weather Stations

Elev 2054 ft 62.58 °N, 11.34 °E | Updated 15 minutes ago

Mostly Cloudy
Mostly Cloudy
32 °F
Feels Like 25 °F
N
8
Wind Variable Wind from SSW

Today
High -- | Low -- °F
--% Chance of Precip.
Yesterday
High -- | Low -- °F
Precip. -- in
7:01 AM 5:44 PM
Full, 100% visible
Pressure 29.86 in
Visibility 6.2 miles
Clouds Few 3900 ft
Mostly Cloudy 5600 ft
Windchill 25 °F
Dew Point 23 °F
Humidity 69%
Rainfall 0.00 in
Snow Depth Not available.
UV 0 out of 12
Pollen Not available.
Air Quality Not available.
Flu Activity Not available.
METAR ENRO 051650Z 21007KT 140V240 9999 FEW039 BKN056 00/M05 Q1011

More Conditions Fewer Conditions

Pressure 29.86 in
Visibility 6.2 miles
Clouds Few 3900 ft
Mostly Cloudy 5600 ft
Windchill 25 °F
Dew Point 23 °F
Humidity 69%
Rainfall 0.00 in
Snow Depth Not available.
UV 0 out of 12
Pollen Not available.
Air Quality Not available.
Flu Activity Not available.
METAR ENRO 051650Z 21007KT 140V240 9999 FEW039 BKN056 00/M05 Q1011

More Conditions Fewer Conditions

10-Day Weather Forecast

Almanac

Astronomy

Mar. 05, 2015 Rise Set
Actual Time
Civil Twilight
Nautical Twilight
Astronomical Twilight
Moon
Length of Visible Light
Length of Day
Tomorrow will be .
, % of the Moon is Illuminated

Today's Extremes

Country Highs Country Lows

Community

WunderPhotos

Upload Photos

1,802,861 photos uploaded!

WunderBlogs® & News

Nearby

Air Quality

  Air Quality AQ Index Pollutant
Not available.

Snow Depth

Station Depth Elevation

Earthquake Activity

City Distance Mag. Time & Date
Minimum magnitude displayed is 2.5.

Coastal Water Temperatures

Place Temperature

Nearby Weather Stations